sensor_id;sensor_type;location;lat;lon;timestamp;temperature;humidity
10249;DHT22;5169;50.560;9.714;2023-03-23T00:02:27;12.90;99.90
10249;DHT22;5169;50.560;9.714;2023-03-23T00:04:54;12.90;99.90
10249;DHT22;5169;50.560;9.714;2023-03-23T00:07:25;12.90;99.90
10249;DHT22;5169;50.560;9.714;2023-03-23T00:09:54;13.00;99.90
10249;DHT22;5169;50.560;9.714;2023-03-23T00:12:25;13.00;99.90
10249;DHT22;5169;50.560;9.714;2023-03-23T00:14:59;13.10;99.90
10249;DHT22;5169;50.560;9.714;2023-03-23T00:17:26;13.00;99.90
10249;DHT22;5169;50.560;9.714;2023-03-23T00:19:52;13.10;99.90
10249;DHT22;5169;50.560;9.714;2023-03-23T00:22:18;13.10;99.90
10249;DHT22;5169;50.560;9.714;2023-03-23T00:24:47;13.00;99.90
10249;DHT22;5169;50.560;9.714;2023-03-23T00:27:15;13.00;99.90
10249;DHT22;5169;50.560;9.714;2023-03-23T00:29:41;13.00;99.90
10249;DHT22;5169;50.560;9.714;2023-03-23T00:32:08;13.00;99.90
10249;DHT22;5169;50.560;9.714;2023-03-23T00:34:40;13.00;99.90
10249;DHT22;5169;50.560;9.714;2023-03-23T00:37:10;12.90;99.90
10249;DHT22;5169;50.560;9.714;2023-03-23T00:39:35;13.00;99.90
10249;DHT22;5169;50.560;9.714;2023-03-23T00:42:04;13.00;99.90
10249;DHT22;5169;50.560;9.714;2023-03-23T00:44:32;12.90;99.90
10249;DHT22;5169;50.560;9.714;2023-03-23T00:47:01;12.80;99.90
10249;DHT22;5169;50.560;9.714;2023-03-23T00:49:27;12.80;99.90
10249;DHT22;5169;50.560;9.714;2023-03-23T00:51:55;12.80;99.90
10249;DHT22;5169;50.560;9.714;2023-03-23T00:54:21;12.90;99.90
10249;DHT22;5169;50.560;9.714;2023-03-23T00:56:49;12.90;99.90
10249;DHT22;5169;50.560;9.714;2023-03-23T00:59:15;12.90;99.90
10249;DHT22;5169;50.560;9.714;2023-03-23T01:01:42;12.90;99.90
10249;DHT22;5169;50.560;9.714;2023-03-23T01:04:08;12.90;99.90
10249;DHT22;5169;50.560;9.714;2023-03-23T01:06:38;12.80;99.90
10249;DHT22;5169;50.560;9.714;2023-03-23T01:09:10;12.80;99.90
10249;DHT22;5169;50.560;9.714;2023-03-23T01:11:43;12.80;99.90
10249;DHT22;5169;50.560;9.714;2023-03-23T01:14:09;12.80;99.90
10249;DHT22;5169;50.560;9.714;2023-03-23T01:16:35;12.70;99.90
10249;DHT22;5169;50.560;9.714;2023-03-23T01:19:01;12.70;99.90
10249;DHT22;5169;50.560;9.714;2023-03-23T01:21:27;12.70;99.90
10249;DHT22;5169;50.560;9.714;2023-03-23T01:23:53;12.70;99.90
10249;DHT22;5169;50.560;9.714;2023-03-23T01:26:22;12.50;99.90
10249;DHT22;5169;50.560;9.714;2023-03-23T01:28:48;12.50;99.90
10249;DHT22;5169;50.560;9.714;2023-03-23T01:31:17;12.50;99.90
10249;DHT22;5169;50.560;9.714;2023-03-23T01:33:44;12.50;99.90
10249;DHT22;5169;50.560;9.714;2023-03-23T01:36:15;12.40;99.90
10249;DHT22;5169;50.560;9.714;2023-03-23T01:38:43;12.50;99.90
10249;DHT22;5169;50.560;9.714;2023-03-23T01:41:12;12.50;99.90
10249;DHT22;5169;50.560;9.714;2023-03-23T01:46:30;12.40;99.90
10249;DHT22;5169;50.560;9.714;2023-03-23T01:48:59;12.40;99.90
10249;DHT22;5169;50.560;9.714;2023-03-23T01:51:27;12.40;99.90
10249;DHT22;5169;50.560;9.714;2023-03-23T01:53:54;12.50;99.90
10249;DHT22;5169;50.560;9.714;2023-03-23T01:56:23;12.50;99.90
10249;DHT22;5169;50.560;9.714;2023-03-23T01:58:53;12.50;99.90
10249;DHT22;5169;50.560;9.714;2023-03-23T02:01:21;12.50;99.90
10249;DHT22;5169;50.560;9.714;2023-03-23T02:03:47;12.50;99.90
10249;DHT22;5169;50.560;9.714;2023-03-23T02:06:14;12.40;99.90
10249;DHT22;5169;50.560;9.714;2023-03-23T02:08:41;12.50;99.90
10249;DHT22;5169;50.560;9.714;2023-03-23T02:11:18;12.50;99.90
10249;DHT22;5169;50.560;9.714;2023-03-23T02:13:45;12.50;99.90
10249;DHT22;5169;50.560;9.714;2023-03-23T02:16:21;12.50;99.90
10249;DHT22;5169;50.560;9.714;2023-03-23T02:35:12;12.50;99.90
10249;DHT22;5169;50.560;9.714;2023-03-23T02:38:02;12.50;99.90
10249;DHT22;5169;50.560;9.714;2023-03-23T02:40:40;12.60;99.90
10249;DHT22;5169;50.560;9.714;2023-03-23T02:43:14;12.60;99.90
10249;DHT22;5169;50.560;9.714;2023-03-23T02:45:42;12.60;99.90
10249;DHT22;5169;50.560;9.714;2023-03-23T02:48:10;12.60;99.90
10249;DHT22;5169;50.560;9.714;2023-03-23T02:50:41;12.70;99.90
10249;DHT22;5169;50.560;9.714;2023-03-23T02:53:10;12.70;99.90
10249;DHT22;5169;50.560;9.714;2023-03-23T02:55:41;12.70;99.90
10249;DHT22;5169;50.560;9.714;2023-03-23T02:58:11;12.70;99.90
10249;DHT22;5169;50.560;9.714;2023-03-23T03:00:38;12.80;99.90
10249;DHT22;5169;50.560;9.714;2023-03-23T03:03:13;12.70;99.90
10249;DHT22;5169;50.560;9.714;2023-03-23T03:05:58;12.70;99.90
10249;DHT22;5169;50.560;9.714;2023-03-23T03:08:35;12.60;99.90
10249;DHT22;5169;50.560;9.714;2023-03-23T03:11:18;12.60;99.90
10249;DHT22;5169;50.560;9.714;2023-03-23T03:22:13;12.70;99.90
10249;DHT22;5169;50.560;9.714;2023-03-23T03:24:42;12.70;99.90
10249;DHT22;5169;50.560;9.714;2023-03-23T03:27:17;12.60;99.90
10249;DHT22;5169;50.560;9.714;2023-03-23T03:29:45;12.60;99.90
10249;DHT22;5169;50.560;9.714;2023-03-23T03:32:16;12.60;99.90
10249;DHT22;5169;50.560;9.714;2023-03-23T03:34:44;12.50;99.90
10249;DHT22;5169;50.560;9.714;2023-03-23T03:37:11;12.40;99.90
10249;DHT22;5169;50.560;9.714;2023-03-23T03:39:38;12.40;99.90
10249;DHT22;5169;50.560;9.714;2023-03-23T03:42:05;12.30;99.90
10249;DHT22;5169;50.560;9.714;2023-03-23T03:44:32;12.30;99.90
10249;DHT22;5169;50.560;9.714;2023-03-23T03:46:58;12.30;99.90
10249;DHT22;5169;50.560;9.714;2023-03-23T03:49:25;12.30;99.90
10249;DHT22;5169;50.560;9.714;2023-03-23T03:51:52;12.20;99.90
10249;DHT22;5169;50.560;9.714;2023-03-23T03:54:18;12.20;99.90
10249;DHT22;5169;50.560;9.714;2023-03-23T03:56:44;12.10;99.90
10249;DHT22;5169;50.560;9.714;2023-03-23T03:59:11;12.10;99.90
10249;DHT22;5169;50.560;9.714;2023-03-23T04:01:38;12.10;99.90
10249;DHT22;5169;50.560;9.714;2023-03-23T04:04:05;12.10;99.90
10249;DHT22;5169;50.560;9.714;2023-03-23T04:06:33;12.00;99.90
10249;DHT22;5169;50.560;9.714;2023-03-23T04:09:05;11.90;99.90
10249;DHT22;5169;50.560;9.714;2023-03-23T04:11:32;11.70;99.90
10249;DHT22;5169;50.560;9.714;2023-03-23T04:13:58;11.50;99.90
10249;DHT22;5169;50.560;9.714;2023-03-23T04:16:23;11.40;99.90
10249;DHT22;5169;50.560;9.714;2023-03-23T04:18:49;11.30;99.90
10249;DHT22;5169;50.560;9.714;2023-03-23T04:21:17;11.20;99.90
10249;DHT22;5169;50.560;9.714;2023-03-23T04:23:46;11.10;99.90
10249;DHT22;5169;50.560;9.714;2023-03-23T04:26:12;11.10;99.90
10249;DHT22;5169;50.560;9.714;2023-03-23T04:28:39;11.00;99.90
10249;DHT22;5169;50.560;9.714;2023-03-23T04:31:06;11.00;99.90
10249;DHT22;5169;50.560;9.714;2023-03-23T04:33:32;10.90;99.90
10249;DHT22;5169;50.560;9.714;2023-03-23T04:36:00;11.00;99.90
10249;DHT22;5169;50.560;9.714;2023-03-23T04:38:28;10.90;99.90
10249;DHT22;5169;50.560;9.714;2023-03-23T04:41:00;11.00;99.90
10249;DHT22;5169;50.560;9.714;2023-03-23T04:43:29;10.90;99.90
10249;DHT22;5169;50.560;9.714;2023-03-23T04:46:07;11.00;99.90
10249;DHT22;5169;50.560;9.714;2023-03-23T04:48:34;11.00;99.90
10249;DHT22;5169;50.560;9.714;2023-03-23T04:51:04;10.90;99.90
10249;DHT22;5169;50.560;9.714;2023-03-23T04:53:33;10.90;99.90
10249;DHT22;5169;50.560;9.714;2023-03-23T04:55:59;11.00;99.90
10249;DHT22;5169;50.560;9.714;2023-03-23T04:58:26;11.00;99.90
10249;DHT22;5169;50.560;9.714;2023-03-23T05:00:55;10.90;99.90
10249;DHT22;5169;50.560;9.714;2023-03-23T05:03:21;10.90;99.90
10249;DHT22;5169;50.560;9.714;2023-03-23T05:05:50;10.90;99.90
10249;DHT22;5169;50.560;9.714;2023-03-23T05:08:23;10.90;99.90
10249;DHT22;5169;50.560;9.714;2023-03-23T05:10:57;11.00;99.90
10249;DHT22;5169;50.560;9.714;2023-03-23T05:13:27;11.00;99.90
10249;DHT22;5169;50.560;9.714;2023-03-23T05:15:54;11.00;99.90
10249;DHT22;5169;50.560;9.714;2023-03-23T05:18:20;10.90;99.90
10249;DHT22;5169;50.560;9.714;2023-03-23T05:20:46;10.80;99.90
10249;DHT22;5169;50.560;9.714;2023-03-23T05:23:12;10.80;99.90
10249;DHT22;5169;50.560;9.714;2023-03-23T05:25:39;10.80;99.90
10249;DHT22;5169;50.560;9.714;2023-03-23T05:28:11;10.70;99.90
10249;DHT22;5169;50.560;9.714;2023-03-23T05:30:37;10.70;99.90
10249;DHT22;5169;50.560;9.714;2023-03-23T05:33:04;10.70;99.90
10249;DHT22;5169;50.560;9.714;2023-03-23T05:35:30;10.80;99.90
10249;DHT22;5169;50.560;9.714;2023-03-23T05:37:56;10.80;99.90
10249;DHT22;5169;50.560;9.714;2023-03-23T05:40:25;10.80;99.90
10249;DHT22;5169;50.560;9.714;2023-03-23T05:42:52;10.70;99.90
10249;DHT22;5169;50.560;9.714;2023-03-23T05:45:18;10.60;99.90
10249;DHT22;5169;50.560;9.714;2023-03-23T05:47:44;10.50;99.90
10249;DHT22;5169;50.560;9.714;2023-03-23T05:50:11;10.50;99.90
10249;DHT22;5169;50.560;9.714;2023-03-23T05:52:42;10.50;99.90
10249;DHT22;5169;50.560;9.714;2023-03-23T05:55:08;10.40;99.90
10249;DHT22;5169;50.560;9.714;2023-03-23T05:57:34;10.50;99.90
10249;DHT22;5169;50.560;9.714;2023-03-23T06:00:03;10.40;99.90
10249;DHT22;5169;50.560;9.714;2023-03-23T06:02:46;10.40;99.90
10249;DHT22;5169;50.560;9.714;2023-03-23T06:05:12;10.30;99.90
10249;DHT22;5169;50.560;9.714;2023-03-23T06:07:38;10.30;99.90
10249;DHT22;5169;50.560;9.714;2023-03-23T06:10:08;10.30;99.90
10249;DHT22;5169;50.560;9.714;2023-03-23T06:12:35;10.30;99.90
10249;DHT22;5169;50.560;9.714;2023-03-23T06:15:01;10.30;99.90
10249;DHT22;5169;50.560;9.714;2023-03-23T06:17:26;10.30;99.90
10249;DHT22;5169;50.560;9.714;2023-03-23T06:19:53;10.20;99.90
10249;DHT22;5169;50.560;9.714;2023-03-23T06:22:18;10.10;99.90
10249;DHT22;5169;50.560;9.714;2023-03-23T06:24:44;10.10;99.90
10249;DHT22;5169;50.560;9.714;2023-03-23T06:27:10;10.10;99.90
10249;DHT22;5169;50.560;9.714;2023-03-23T06:29:41;10.10;99.90
10249;DHT22;5169;50.560;9.714;2023-03-23T06:32:10;10.10;99.90
10249;DHT22;5169;50.560;9.714;2023-03-23T06:34:39;10.20;99.90
10249;DHT22;5169;50.560;9.714;2023-03-23T06:37:09;10.20;99.90
10249;DHT22;5169;50.560;9.714;2023-03-23T06:39:37;10.20;99.90
10249;DHT22;5169;50.560;9.714;2023-03-23T06:42:04;10.40;99.90
10249;DHT22;5169;50.560;9.714;2023-03-23T06:44:30;10.40;99.90
10249;DHT22;5169;50.560;9.714;2023-03-23T06:46:56;10.40;99.90
10249;DHT22;5169;50.560;9.714;2023-03-23T06:49:22;10.50;99.90
10249;DHT22;5169;50.560;9.714;2023-03-23T06:51:48;10.60;99.90
10249;DHT22;5169;50.560;9.714;2023-03-23T06:54:13;10.60;99.90
10249;DHT22;5169;50.560;9.714;2023-03-23T06:56:42;10.60;99.90
10249;DHT22;5169;50.560;9.714;2023-03-23T06:59:08;10.60;99.90
10249;DHT22;5169;50.560;9.714;2023-03-23T07:01:34;10.70;99.90
10249;DHT22;5169;50.560;9.714;2023-03-23T07:04:00;10.70;99.90
10249;DHT22;5169;50.560;9.714;2023-03-23T07:06:28;10.70;99.90
10249;DHT22;5169;50.560;9.714;2023-03-23T07:08:54;10.80;99.90
10249;DHT22;5169;50.560;9.714;2023-03-23T07:11:19;10.80;99.90
10249;DHT22;5169;50.560;9.714;2023-03-23T07:13:47;10.90;99.90
10249;DHT22;5169;50.560;9.714;2023-03-23T07:16:15;10.90;99.90
10249;DHT22;5169;50.560;9.714;2023-03-23T07:18:41;10.90;99.90
10249;DHT22;5169;50.560;9.714;2023-03-23T07:21:07;11.00;99.90
10249;DHT22;5169;50.560;9.714;2023-03-23T07:23:33;11.10;99.90
10249;DHT22;5169;50.560;9.714;2023-03-23T07:25:58;11.20;99.90
10249;DHT22;5169;50.560;9.714;2023-03-23T07:28:31;11.10;99.90
10249;DHT22;5169;50.560;9.714;2023-03-23T07:30:57;11.10;99.90
10249;DHT22;5169;50.560;9.714;2023-03-23T07:33:22;11.20;99.90
10249;DHT22;5169;50.560;9.714;2023-03-23T07:35:48;11.30;99.90
10249;DHT22;5169;50.560;9.714;2023-03-23T07:38:14;11.40;99.90
10249;DHT22;5169;50.560;9.714;2023-03-23T07:40:40;11.60;99.90
10249;DHT22;5169;50.560;9.714;2023-03-23T07:43:06;11.70;99.90
10249;DHT22;5169;50.560;9.714;2023-03-23T07:45:32;11.70;99.90
10249;DHT22;5169;50.560;9.714;2023-03-23T07:48:01;11.90;99.90
10249;DHT22;5169;50.560;9.714;2023-03-23T07:50:28;11.80;99.90
10249;DHT22;5169;50.560;9.714;2023-03-23T07:52:56;11.80;99.90
10249;DHT22;5169;50.560;9.714;2023-03-23T07:55:24;11.90;99.90
10249;DHT22;5169;50.560;9.714;2023-03-23T07:57:52;11.80;99.90
10249;DHT22;5169;50.560;9.714;2023-03-23T08:00:19;11.80;99.90
10249;DHT22;5169;50.560;9.714;2023-03-23T08:02:46;11.70;99.90
10249;DHT22;5169;50.560;9.714;2023-03-23T08:05:12;11.70;99.90
10249;DHT22;5169;50.560;9.714;2023-03-23T08:07:41;11.50;99.90
10249;DHT22;5169;50.560;9.714;2023-03-23T08:10:09;11.50;99.90
10249;DHT22;5169;50.560;9.714;2023-03-23T08:12:41;11.40;99.90
10249;DHT22;5169;50.560;9.714;2023-03-23T08:15:11;11.30;99.90
10249;DHT22;5169;50.560;9.714;2023-03-23T08:17:41;11.20;99.90
10249;DHT22;5169;50.560;9.714;2023-03-23T08:20:10;11.10;99.90
10249;DHT22;5169;50.560;9.714;2023-03-23T08:22:43;11.00;99.90
10249;DHT22;5169;50.560;9.714;2023-03-23T08:25:13;11.10;99.90
10249;DHT22;5169;50.560;9.714;2023-03-23T08:27:42;11.10;99.90
10249;DHT22;5169;50.560;9.714;2023-03-23T08:30:11;11.20;99.90
10249;DHT22;5169;50.560;9.714;2023-03-23T08:32:38;11.30;99.90
10249;DHT22;5169;50.560;9.714;2023-03-23T08:35:05;11.30;99.90
10249;DHT22;5169;50.560;9.714;2023-03-23T08:37:37;11.40;99.90
10249;DHT22;5169;50.560;9.714;2023-03-23T08:40:10;11.40;99.90
10249;DHT22;5169;50.560;9.714;2023-03-23T08:42:41;11.40;99.90
10249;DHT22;5169;50.560;9.714;2023-03-23T08:45:12;11.40;99.90
10249;DHT22;5169;50.560;9.714;2023-03-23T08:47:38;11.40;99.90
10249;DHT22;5169;50.560;9.714;2023-03-23T08:50:05;11.50;99.90
10249;DHT22;5169;50.560;9.714;2023-03-23T08:52:31;11.50;99.90
10249;DHT22;5169;50.560;9.714;2023-03-23T08:54:57;11.50;99.90
10249;DHT22;5169;50.560;9.714;2023-03-23T08:57:26;11.50;99.90
10249;DHT22;5169;50.560;9.714;2023-03-23T08:59:52;11.60;99.90
10249;DHT22;5169;50.560;9.714;2023-03-23T09:02:26;11.60;99.90
10249;DHT22;5169;50.560;9.714;2023-03-23T09:04:52;11.60;99.90
10249;DHT22;5169;50.560;9.714;2023-03-23T09:07:18;11.70;99.90
10249;DHT22;5169;50.560;9.714;2023-03-23T09:09:47;11.80;99.90
10249;DHT22;5169;50.560;9.714;2023-03-23T09:12:12;11.80;99.90
10249;DHT22;5169;50.560;9.714;2023-03-23T09:14:39;11.80;99.90
10249;DHT22;5169;50.560;9.714;2023-03-23T09:17:05;11.80;99.90
10249;DHT22;5169;50.560;9.714;2023-03-23T09:19:32;11.90;99.90
10249;DHT22;5169;50.560;9.714;2023-03-23T09:21:59;12.00;99.90
10249;DHT22;5169;50.560;9.714;2023-03-23T09:24:25;12.00;99.90
10249;DHT22;5169;50.560;9.714;2023-03-23T09:26:53;11.90;99.90
10249;DHT22;5169;50.560;9.714;2023-03-23T09:29:21;11.90;99.90
10249;DHT22;5169;50.560;9.714;2023-03-23T09:31:47;11.90;99.90
10249;DHT22;5169;50.560;9.714;2023-03-23T09:34:16;12.00;99.90
10249;DHT22;5169;50.560;9.714;2023-03-23T09:36:43;12.00;99.90
10249;DHT22;5169;50.560;9.714;2023-03-23T09:39:09;12.00;99.90
10249;DHT22;5169;50.560;9.714;2023-03-23T09:44:39;12.00;99.90
10249;DHT22;5169;50.560;9.714;2023-03-23T09:47:29;12.10;99.90
10249;DHT22;5169;50.560;9.714;2023-03-23T09:50:21;12.20;99.90
10249;DHT22;5169;50.560;9.714;2023-03-23T09:52:59;12.20;99.90
10249;DHT22;5169;50.560;9.714;2023-03-23T09:55:26;12.20;99.90
10249;DHT22;5169;50.560;9.714;2023-03-23T09:58:09;12.10;99.90
10249;DHT22;5169;50.560;9.714;2023-03-23T10:00:43;12.10;99.90
10249;DHT22;5169;50.560;9.714;2023-03-23T10:03:22;12.10;99.90
10249;DHT22;5169;50.560;9.714;2023-03-23T10:05:54;12.20;99.90
10249;DHT22;5169;50.560;9.714;2023-03-23T10:08:29;12.30;99.90
10249;DHT22;5169;50.560;9.714;2023-03-23T10:16:55;12.90;99.90
10249;DHT22;5169;50.560;9.714;2023-03-23T10:22:17;13.20;99.90
10249;DHT22;5169;50.560;9.714;2023-03-23T10:25:03;13.40;99.90
10249;DHT22;5169;50.560;9.714;2023-03-23T10:30:35;13.30;99.90
10249;DHT22;5169;50.560;9.714;2023-03-23T10:36:11;13.00;99.90
10249;DHT22;5169;50.560;9.714;2023-03-23T10:39:13;12.90;99.90
10249;DHT22;5169;50.560;9.714;2023-03-23T10:41:40;12.90;99.90
10249;DHT22;5169;50.560;9.714;2023-03-23T10:44:18;12.90;99.90
10249;DHT22;5169;50.560;9.714;2023-03-23T10:47:00;12.90;99.90
10249;DHT22;5169;50.560;9.714;2023-03-23T10:49:30;12.90;99.90
10249;DHT22;5169;50.560;9.714;2023-03-23T10:55:17;12.60;99.90
10249;DHT22;5169;50.560;9.714;2023-03-23T10:57:58;12.60;99.90
10249;DHT22;5169;50.560;9.714;2023-03-23T11:00:25;12.60;99.90
10249;DHT22;5169;50.560;9.714;2023-03-23T11:03:00;12.50;99.90
10249;DHT22;5169;50.560;9.714;2023-03-23T11:05:36;12.60;99.90
10249;DHT22;5169;50.560;9.714;2023-03-23T11:08:10;12.70;99.90
10249;DHT22;5169;50.560;9.714;2023-03-23T11:10:57;12.70;99.90
10249;DHT22;5169;50.560;9.714;2023-03-23T11:13:29;12.80;99.90
10249;DHT22;5169;50.560;9.714;2023-03-23T11:15:55;13.00;99.90
10249;DHT22;5169;50.560;9.714;2023-03-23T11:18:41;13.20;99.90
10249;DHT22;5169;50.560;9.714;2023-03-23T11:21:12;13.50;99.90
10249;DHT22;5169;50.560;9.714;2023-03-23T11:23:48;13.50;99.90
10249;DHT22;5169;50.560;9.714;2023-03-23T11:26:27;13.40;99.90
10249;DHT22;5169;50.560;9.714;2023-03-23T11:36:48;14.70;99.90
10249;DHT22;5169;50.560;9.714;2023-03-23T11:39:31;14.20;99.90
10249;DHT22;5169;50.560;9.714;2023-03-23T11:41:59;14.00;99.90
10249;DHT22;5169;50.560;9.714;2023-03-23T11:44:33;13.70;99.90
10249;DHT22;5169;50.560;9.714;2023-03-23T11:47:30;13.40;99.90
10249;DHT22;5169;50.560;9.714;2023-03-23T11:55:36;13.10;99.90
10249;DHT22;5169;50.560;9.714;2023-03-23T11:58:10;13.70;99.90
10249;DHT22;5169;50.560;9.714;2023-03-23T12:08:59;14.40;99.90
10249;DHT22;5169;50.560;9.714;2023-03-23T12:11:55;14.50;99.90
10249;DHT22;5169;50.560;9.714;2023-03-23T12:14:29;15.00;99.90
10249;DHT22;5169;50.560;9.714;2023-03-23T12:20:06;15.10;99.90
10249;DHT22;5169;50.560;9.714;2023-03-23T12:30:35;13.80;99.90
10249;DHT22;5169;50.560;9.714;2023-03-23T12:43:26;12.90;99.90
10249;DHT22;5169;50.560;9.714;2023-03-23T12:46:54;12.80;99.90
10249;DHT22;5169;50.560;9.714;2023-03-23T13:03:13;12.60;99.90
10249;DHT22;5169;50.560;9.714;2023-03-23T13:05:46;12.60;99.90
10249;DHT22;5169;50.560;9.714;2023-03-23T13:08:23;12.60;99.90
10249;DHT22;5169;50.560;9.714;2023-03-23T13:10:57;12.60;99.90
10249;DHT22;5169;50.560;9.714;2023-03-23T13:13:39;12.60;99.90
10249;DHT22;5169;50.560;9.714;2023-03-23T13:21:43;12.40;99.90
10249;DHT22;5169;50.560;9.714;2023-03-23T13:24:17;12.50;99.90
10249;DHT22;5169;50.560;9.714;2023-03-23T13:26:44;12.50;99.90
10249;DHT22;5169;50.560;9.714;2023-03-23T13:29:20;12.60;99.90
10249;DHT22;5169;50.560;9.714;2023-03-23T13:31:52;12.50;99.90
10249;DHT22;5169;50.560;9.714;2023-03-23T13:40:30;12.60;99.90
10249;DHT22;5169;50.560;9.714;2023-03-23T13:42:59;12.60;99.90
10249;DHT22;5169;50.560;9.714;2023-03-23T13:51:00;12.50;99.90
10249;DHT22;5169;50.560;9.714;2023-03-23T13:53:30;12.60;99.90
10249;DHT22;5169;50.560;9.714;2023-03-23T13:59:06;12.50;99.90
10249;DHT22;5169;50.560;9.714;2023-03-23T14:01:36;12.60;99.90
10249;DHT22;5169;50.560;9.714;2023-03-23T14:04:07;12.70;99.90
10249;DHT22;5169;50.560;9.714;2023-03-23T14:06:36;12.80;99.90
10249;DHT22;5169;50.560;9.714;2023-03-23T14:11:57;13.00;99.90
10249;DHT22;5169;50.560;9.714;2023-03-23T14:14:27;13.10;99.90
10249;DHT22;5169;50.560;9.714;2023-03-23T14:17:07;13.20;99.90
10249;DHT22;5169;50.560;9.714;2023-03-23T14:19:38;13.20;99.90
10249;DHT22;5169;50.560;9.714;2023-03-23T14:22:05;13.20;99.90
10249;DHT22;5169;50.560;9.714;2023-03-23T14:24:41;13.10;99.90
10249;DHT22;5169;50.560;9.714;2023-03-23T14:27:17;13.10;99.90
10249;DHT22;5169;50.560;9.714;2023-03-23T14:29:44;13.30;99.90
10249;DHT22;5169;50.560;9.714;2023-03-23T14:32:18;13.40;99.90
10249;DHT22;5169;50.560;9.714;2023-03-23T14:34:47;13.60;99.90
10249;DHT22;5169;50.560;9.714;2023-03-23T14:37:16;13.70;99.90
10249;DHT22;5169;50.560;9.714;2023-03-23T14:39:48;13.70;99.90
10249;DHT22;5169;50.560;9.714;2023-03-23T14:42:26;13.90;99.90
10249;DHT22;5169;50.560;9.714;2023-03-23T14:44:56;14.10;99.90
10249;DHT22;5169;50.560;9.714;2023-03-23T14:47:29;14.10;99.90
10249;DHT22;5169;50.560;9.714;2023-03-23T14:50:03;14.10;99.90
10249;DHT22;5169;50.560;9.714;2023-03-23T14:52:38;14.20;99.90
10249;DHT22;5169;50.560;9.714;2023-03-23T14:55:22;14.30;99.90
10249;DHT22;5169;50.560;9.714;2023-03-23T14:57:49;14.40;99.90
10249;DHT22;5169;50.560;9.714;2023-03-23T15:00:34;14.40;99.90
10249;DHT22;5169;50.560;9.714;2023-03-23T15:03:05;14.30;99.90
10249;DHT22;5169;50.560;9.714;2023-03-23T15:05:35;14.10;99.90
10249;DHT22;5169;50.560;9.714;2023-03-23T15:08:15;14.10;99.90
10249;DHT22;5169;50.560;9.714;2023-03-23T15:10:52;14.10;99.90
10249;DHT22;5169;50.560;9.714;2023-03-23T15:13:18;14.00;99.90
10249;DHT22;5169;50.560;9.714;2023-03-23T15:15:45;14.10;99.90
10249;DHT22;5169;50.560;9.714;2023-03-23T15:18:28;14.30;99.90
10249;DHT22;5169;50.560;9.714;2023-03-23T15:21:09;14.40;99.90
10249;DHT22;5169;50.560;9.714;2023-03-23T15:23:41;14.20;99.90
10249;DHT22;5169;50.560;9.714;2023-03-23T15:26:34;14.10;99.90
10249;DHT22;5169;50.560;9.714;2023-03-23T15:29:22;14.00;99.90
10249;DHT22;5169;50.560;9.714;2023-03-23T15:31:53;13.90;99.90
10249;DHT22;5169;50.560;9.714;2023-03-23T15:34:40;13.80;99.90
10249;DHT22;5169;50.560;9.714;2023-03-23T15:37:28;13.80;99.90
10249;DHT22;5169;50.560;9.714;2023-03-23T15:39:56;13.70;99.90
10249;DHT22;5169;50.560;9.714;2023-03-23T15:42:26;13.70;99.90
10249;DHT22;5169;50.560;9.714;2023-03-23T15:45:04;13.60;99.90
10249;DHT22;5169;50.560;9.714;2023-03-23T15:47:43;13.60;99.90
10249;DHT22;5169;50.560;9.714;2023-03-23T15:50:14;13.50;99.90
10249;DHT22;5169;50.560;9.714;2023-03-23T15:52:41;13.60;99.90
10249;DHT22;5169;50.560;9.714;2023-03-23T15:55:29;13.50;99.90
10249;DHT22;5169;50.560;9.714;2023-03-23T15:57:57;13.50;99.90
10249;DHT22;5169;50.560;9.714;2023-03-23T16:00:27;13.50;99.90
10249;DHT22;5169;50.560;9.714;2023-03-23T16:02:58;13.50;99.90
10249;DHT22;5169;50.560;9.714;2023-03-23T16:05:28;13.50;99.90
10249;DHT22;5169;50.560;9.714;2023-03-23T16:07:56;13.60;99.90
10249;DHT22;5169;50.560;9.714;2023-03-23T16:10:24;13.60;99.90
10249;DHT22;5169;50.560;9.714;2023-03-23T16:12:50;13.60;99.90
10249;DHT22;5169;50.560;9.714;2023-03-23T16:15:19;13.70;99.90
10249;DHT22;5169;50.560;9.714;2023-03-23T16:17:49;13.60;99.90
10249;DHT22;5169;50.560;9.714;2023-03-23T16:20:18;13.50;99.90
10249;DHT22;5169;50.560;9.714;2023-03-23T16:22:44;13.40;99.90
10249;DHT22;5169;50.560;9.714;2023-03-23T16:25:13;13.40;99.90
10249;DHT22;5169;50.560;9.714;2023-03-23T16:27:40;13.40;99.90
10249;DHT22;5169;50.560;9.714;2023-03-23T16:30:21;13.50;99.90
10249;DHT22;5169;50.560;9.714;2023-03-23T16:32:50;13.50;99.90
10249;DHT22;5169;50.560;9.714;2023-03-23T16:35:17;13.40;99.90
10249;DHT22;5169;50.560;9.714;2023-03-23T16:37:46;13.30;99.90
10249;DHT22;5169;50.560;9.714;2023-03-23T16:40:13;13.30;99.90
10249;DHT22;5169;50.560;9.714;2023-03-23T16:42:41;13.20;99.90
10249;DHT22;5169;50.560;9.714;2023-03-23T16:45:07;13.20;99.90
10249;DHT22;5169;50.560;9.714;2023-03-23T16:47:36;13.10;99.90
10249;DHT22;5169;50.560;9.714;2023-03-23T16:50:04;13.10;99.90
10249;DHT22;5169;50.560;9.714;2023-03-23T16:52:31;13.00;99.90
10249;DHT22;5169;50.560;9.714;2023-03-23T16:54:57;13.00;99.90
10249;DHT22;5169;50.560;9.714;2023-03-23T16:57:23;13.10;99.90
10249;DHT22;5169;50.560;9.714;2023-03-23T16:59:51;13.00;99.90
10249;DHT22;5169;50.560;9.714;2023-03-23T17:02:17;13.00;99.90
10249;DHT22;5169;50.560;9.714;2023-03-23T17:04:45;13.00;99.90
10249;DHT22;5169;50.560;9.714;2023-03-23T17:07:12;13.00;99.90
10249;DHT22;5169;50.560;9.714;2023-03-23T17:09:38;13.00;99.90
10249;DHT22;5169;50.560;9.714;2023-03-23T17:12:06;12.90;99.90
10249;DHT22;5169;50.560;9.714;2023-03-23T17:14:37;12.90;99.90
10249;DHT22;5169;50.560;9.714;2023-03-23T17:17:02;12.90;99.90
10249;DHT22;5169;50.560;9.714;2023-03-23T17:19:28;12.70;99.90
10249;DHT22;5169;50.560;9.714;2023-03-23T17:21:54;12.70;99.90
10249;DHT22;5169;50.560;9.714;2023-03-23T17:24:19;12.60;99.90
10249;DHT22;5169;50.560;9.714;2023-03-23T17:26:46;12.60;99.90
10249;DHT22;5169;50.560;9.714;2023-03-23T17:29:11;12.50;99.90
10249;DHT22;5169;50.560;9.714;2023-03-23T17:31:37;12.50;99.90
10249;DHT22;5169;50.560;9.714;2023-03-23T17:34:03;12.40;99.90
10249;DHT22;5169;50.560;9.714;2023-03-23T17:36:28;12.40;99.90
10249;DHT22;5169;50.560;9.714;2023-03-23T17:38:55;12.40;99.90
10249;DHT22;5169;50.560;9.714;2023-03-23T17:41:23;12.30;99.90
10249;DHT22;5169;50.560;9.714;2023-03-23T17:43:48;12.30;99.90
10249;DHT22;5169;50.560;9.714;2023-03-23T17:46:14;12.30;99.90
10249;DHT22;5169;50.560;9.714;2023-03-23T17:48:40;12.20;99.90
10249;DHT22;5169;50.560;9.714;2023-03-23T17:51:06;12.20;99.90
10249;DHT22;5169;50.560;9.714;2023-03-23T17:53:37;12.20;99.90
10249;DHT22;5169;50.560;9.714;2023-03-23T17:56:04;12.20;99.90
10249;DHT22;5169;50.560;9.714;2023-03-23T17:58:30;12.20;99.90
10249;DHT22;5169;50.560;9.714;2023-03-23T18:00:56;12.10;99.90
10249;DHT22;5169;50.560;9.714;2023-03-23T18:03:24;12.10;99.90
10249;DHT22;5169;50.560;9.714;2023-03-23T18:05:56;12.10;99.90
10249;DHT22;5169;50.560;9.714;2023-03-23T18:08:21;12.10;99.90
10249;DHT22;5169;50.560;9.714;2023-03-23T18:10:48;12.10;99.90
10249;DHT22;5169;50.560;9.714;2023-03-23T18:13:16;12.10;99.90